sensor_id;sensor_type;location;lat;lon;timestamp;P1;durP1;ratioP1;P2;durP2;ratioP2
22460;SDS011;11397;48.410;11.468;2022-10-04T00:04:45;8.25;;;7.95;;
22460;SDS011;11397;48.410;11.468;2022-10-04T00:09:49;8.65;;;8.35;;
22460;SDS011;11397;48.410;11.468;2022-10-04T00:14:52;8.93;;;8.63;;
22460;SDS011;11397;48.410;11.468;2022-10-04T00:19:55;8.73;;;8.43;;
22460;SDS011;11397;48.410;11.468;2022-10-04T00:30:21;9.07;;;8.77;;
22460;SDS011;11397;48.410;11.468;2022-10-04T00:40:44;8.82;;;8.52;;
22460;SDS011;11397;48.410;11.468;2022-10-04T00:45:50;8.35;;;8.05;;
22460;SDS011;11397;48.410;11.468;2022-10-04T00:50:53;8.40;;;8.10;;
22460;SDS011;11397;48.410;11.468;2022-10-04T00:55:57;9.05;;;8.75;;
22460;SDS011;11397;48.410;11.468;2022-10-04T01:01:02;8.95;;;8.65;;
22460;SDS011;11397;48.410;11.468;2022-10-04T01:06:05;8.02;;;7.72;;
22460;SDS011;11397;48.410;11.468;2022-10-04T01:11:08;8.55;;;8.25;;
22460;SDS011;11397;48.410;11.468;2022-10-04T01:16:13;9.15;;;8.85;;
22460;SDS011;11397;48.410;11.468;2022-10-04T01:21:22;9.70;;;9.30;;
22460;SDS011;11397;48.410;11.468;2022-10-04T01:26:36;9.43;;;9.13;;
22460;SDS011;11397;48.410;11.468;2022-10-04T01:31:39;8.95;;;8.65;;
22460;SDS011;11397;48.410;11.468;2022-10-04T01:36:41;8.77;;;8.48;;
22460;SDS011;11397;48.410;11.468;2022-10-04T01:41:47;8.75;;;8.45;;
22460;SDS011;11397;48.410;11.468;2022-10-04T01:46:53;9.73;;;9.32;;
22460;SDS011;11397;48.410;11.468;2022-10-04T01:51:56;7.88;;;7.57;;
22460;SDS011;11397;48.410;11.468;2022-10-04T01:57:03;8.27;;;7.97;;
22460;SDS011;11397;48.410;11.468;2022-10-04T02:02:07;8.07;;;7.78;;
22460;SDS011;11397;48.410;11.468;2022-10-04T02:07:11;8.85;;;8.55;;
22460;SDS011;11397;48.410;11.468;2022-10-04T02:12:15;7.60;;;7.30;;
22460;SDS011;11397;48.410;11.468;2022-10-04T02:17:18;8.38;;;8.07;;
22460;SDS011;11397;48.410;11.468;2022-10-04T02:22:27;8.60;;;8.30;;
22460;SDS011;11397;48.410;11.468;2022-10-04T02:27:30;8.75;;;8.45;;
22460;SDS011;11397;48.410;11.468;2022-10-04T02:32:32;9.43;;;9.13;;
22460;SDS011;11397;48.410;11.468;2022-10-04T02:37:53;8.43;;;8.13;;
22460;SDS011;11397;48.410;11.468;2022-10-04T02:42:58;8.73;;;8.43;;
22460;SDS011;11397;48.410;11.468;2022-10-04T02:48:01;9.10;;;8.80;;
22460;SDS011;11397;48.410;11.468;2022-10-04T02:53:08;8.90;;;8.60;;
22460;SDS011;11397;48.410;11.468;2022-10-04T02:58:14;8.75;;;8.45;;
22460;SDS011;11397;48.410;11.468;2022-10-04T03:03:19;8.82;;;8.52;;
22460;SDS011;11397;48.410;11.468;2022-10-04T03:08:22;8.93;;;8.63;;
22460;SDS011;11397;48.410;11.468;2022-10-04T03:13:26;8.68;;;8.38;;
22460;SDS011;11397;48.410;11.468;2022-10-04T03:18:27;8.75;;;8.45;;
22460;SDS011;11397;48.410;11.468;2022-10-04T03:23:30;9.35;;;9.05;;
22460;SDS011;11397;48.410;11.468;2022-10-04T03:28:34;8.95;;;8.65;;
22460;SDS011;11397;48.410;11.468;2022-10-04T03:33:37;8.70;;;8.40;;
22460;SDS011;11397;48.410;11.468;2022-10-04T03:38:38;9.60;;;9.20;;
22460;SDS011;11397;48.410;11.468;2022-10-04T03:43:43;9.23;;;8.93;;
22460;SDS011;11397;48.410;11.468;2022-10-04T03:48:45;8.82;;;8.52;;
22460;SDS011;11397;48.410;11.468;2022-10-04T03:53:50;8.65;;;8.35;;
22460;SDS011;11397;48.410;11.468;2022-10-04T03:58:54;9.40;;;9.10;;
22460;SDS011;11397;48.410;11.468;2022-10-04T04:03:59;9.18;;;8.88;;
22460;SDS011;11397;48.410;11.468;2022-10-04T04:09:01;8.80;;;8.50;;
22460;SDS011;11397;48.410;11.468;2022-10-04T04:14:07;9.23;;;8.93;;
22460;SDS011;11397;48.410;11.468;2022-10-04T04:19:10;8.68;;;8.38;;
22460;SDS011;11397;48.410;11.468;2022-10-04T04:24:13;7.82;;;7.53;;
22460;SDS011;11397;48.410;11.468;2022-10-04T04:29:23;8.80;;;8.50;;
22460;SDS011;11397;48.410;11.468;2022-10-04T04:34:27;9.10;;;8.80;;
22460;SDS011;11397;48.410;11.468;2022-10-04T04:39:30;8.68;;;8.38;;
22460;SDS011;11397;48.410;11.468;2022-10-04T04:44:38;9.30;;;9.00;;
22460;SDS011;11397;48.410;11.468;2022-10-04T04:49:46;8.57;;;8.27;;
22460;SDS011;11397;48.410;11.468;2022-10-04T04:54:47;9.52;;;9.23;;
22460;SDS011;11397;48.410;11.468;2022-10-04T04:59:51;9.70;;;9.32;;
22460;SDS011;11397;48.410;11.468;2022-10-04T05:05:08;8.75;;;8.45;;
22460;SDS011;11397;48.410;11.468;2022-10-04T05:10:20;9.65;;;9.30;;
22460;SDS011;11397;48.410;11.468;2022-10-04T05:15:23;9.32;;;9.02;;
22460;SDS011;11397;48.410;11.468;2022-10-04T05:20:25;9.32;;;9.02;;
22460;SDS011;11397;48.410;11.468;2022-10-04T05:25:28;9.10;;;8.80;;
22460;SDS011;11397;48.410;11.468;2022-10-04T05:30:38;8.75;;;8.45;;
22460;SDS011;11397;48.410;11.468;2022-10-04T05:35:45;9.32;;;9.02;;
22460;SDS011;11397;48.410;11.468;2022-10-04T05:40:53;9.63;;;9.27;;
22460;SDS011;11397;48.410;11.468;2022-10-04T05:46:17;8.10;;;7.80;;
22460;SDS011;11397;48.410;11.468;2022-10-04T05:51:21;9.60;;;9.27;;
22460;SDS011;11397;48.410;11.468;2022-10-04T05:56:32;9.27;;;8.98;;
22460;SDS011;11397;48.410;11.468;2022-10-04T06:01:43;9.88;;;9.48;;
22460;SDS011;11397;48.410;11.468;2022-10-04T06:06:47;10.20;;;9.80;;
22460;SDS011;11397;48.410;11.468;2022-10-04T06:11:52;9.98;;;9.57;;
22460;SDS011;11397;48.410;11.468;2022-10-04T06:17:09;9.48;;;9.15;;
22460;SDS011;11397;48.410;11.468;2022-10-04T06:22:14;8.75;;;8.45;;
22460;SDS011;11397;48.410;11.468;2022-10-04T06:27:17;9.05;;;8.75;;
22460;SDS011;11397;48.410;11.468;2022-10-04T06:37:54;8.95;;;8.65;;
22460;SDS011;11397;48.410;11.468;2022-10-04T06:43:15;8.95;;;8.65;;
22460;SDS011;11397;48.410;11.468;2022-10-04T06:48:26;9.85;;;9.45;;
22460;SDS011;11397;48.410;11.468;2022-10-04T06:53:35;8.38;;;8.07;;
22460;SDS011;11397;48.410;11.468;2022-10-04T06:58:48;8.73;;;8.43;;
22460;SDS011;11397;48.410;11.468;2022-10-04T07:03:54;8.43;;;8.13;;
22460;SDS011;11397;48.410;11.468;2022-10-04T07:08:59;8.70;;;8.40;;
22460;SDS011;11397;48.410;11.468;2022-10-04T07:14:04;9.48;;;9.18;;
22460;SDS011;11397;48.410;11.468;2022-10-04T07:19:16;9.93;;;9.52;;
22460;SDS011;11397;48.410;11.468;2022-10-04T07:24:27;8.48;;;8.18;;
22460;SDS011;11397;48.410;11.468;2022-10-04T07:29:34;9.27;;;8.98;;
22460;SDS011;11397;48.410;11.468;2022-10-04T07:34:37;7.93;;;7.63;;
22460;SDS011;11397;48.410;11.468;2022-10-04T07:39:46;9.07;;;8.77;;
22460;SDS011;11397;48.410;11.468;2022-10-04T07:44:55;8.70;;;8.40;;
22460;SDS011;11397;48.410;11.468;2022-10-04T07:49:59;9.02;;;8.73;;
22460;SDS011;11397;48.410;11.468;2022-10-04T07:55:22;9.57;;;9.23;;
22460;SDS011;11397;48.410;11.468;2022-10-04T08:00:25;8.98;;;8.68;;
22460;SDS011;11397;48.410;11.468;2022-10-04T08:05:32;9.30;;;9.00;;
22460;SDS011;11397;48.410;11.468;2022-10-04T08:10:38;8.77;;;8.48;;
22460;SDS011;11397;48.410;11.468;2022-10-04T08:15:42;9.02;;;8.73;;
22460;SDS011;11397;48.410;11.468;2022-10-04T08:20:46;8.10;;;7.80;;
22460;SDS011;11397;48.410;11.468;2022-10-04T08:25:50;8.05;;;7.75;;
22460;SDS011;11397;48.410;11.468;2022-10-04T08:31:06;8.75;;;8.45;;
22460;SDS011;11397;48.410;11.468;2022-10-04T08:36:17;8.77;;;8.48;;
22460;SDS011;11397;48.410;11.468;2022-10-04T08:41:34;7.90;;;7.60;;
22460;SDS011;11397;48.410;11.468;2022-10-04T08:46:57;7.97;;;7.68;;
22460;SDS011;11397;48.410;11.468;2022-10-04T09:08:01;8.30;;;8.00;;
22460;SDS011;11397;48.410;11.468;2022-10-04T09:24:25;8.50;;;8.20;;
22460;SDS011;11397;48.410;11.468;2022-10-04T09:29:50;7.70;;;7.40;;
22460;SDS011;11397;48.410;11.468;2022-10-04T09:40:29;8.43;;;8.13;;
22460;SDS011;11397;48.410;11.468;2022-10-04T09:45:36;7.63;;;7.32;;
22460;SDS011;11397;48.410;11.468;2022-10-04T09:50:54;7.63;;;7.32;;
22460;SDS011;11397;48.410;11.468;2022-10-04T09:56:11;8.25;;;7.95;;
22460;SDS011;11397;48.410;11.468;2022-10-04T10:01:18;8.27;;;7.97;;
22460;SDS011;11397;48.410;11.468;2022-10-04T10:06:28;7.22;;;7.00;;
22460;SDS011;11397;48.410;11.468;2022-10-04T10:11:36;7.45;;;7.15;;
22460;SDS011;11397;48.410;11.468;2022-10-04T10:17:00;8.20;;;7.90;;
22460;SDS011;11397;48.410;11.468;2022-10-04T10:22:13;7.88;;;7.57;;
22460;SDS011;11397;48.410;11.468;2022-10-04T10:27:24;7.93;;;7.63;;
22460;SDS011;11397;48.410;11.468;2022-10-04T10:32:35;8.13;;;7.82;;
22460;SDS011;11397;48.410;11.468;2022-10-04T10:37:41;7.32;;;7.10;;
22460;SDS011;11397;48.410;11.468;2022-10-04T10:43:00;7.82;;;7.53;;
22460;SDS011;11397;48.410;11.468;2022-10-04T10:48:11;7.75;;;7.45;;
22460;SDS011;11397;48.410;11.468;2022-10-04T10:58:51;7.40;;;7.13;;
22460;SDS011;11397;48.410;11.468;2022-10-04T11:04:06;6.78;;;6.57;;
22460;SDS011;11397;48.410;11.468;2022-10-04T11:14:51;7.15;;;6.95;;
22460;SDS011;11397;48.410;11.468;2022-10-04T11:20:19;7.13;;;6.82;;
22460;SDS011;11397;48.410;11.468;2022-10-04T11:25:29;6.90;;;6.70;;
22460;SDS011;11397;48.410;11.468;2022-10-04T11:30:39;6.65;;;6.45;;
22460;SDS011;11397;48.410;11.468;2022-10-04T11:41:11;6.90;;;6.70;;
22460;SDS011;11397;48.410;11.468;2022-10-04T11:46:18;6.55;;;6.35;;
22460;SDS011;11397;48.410;11.468;2022-10-04T11:51:29;7.10;;;6.90;;
22460;SDS011;11397;48.410;11.468;2022-10-04T11:56:37;7.10;;;6.90;;
22460;SDS011;11397;48.410;11.468;2022-10-04T12:01:48;7.45;;;7.15;;
22460;SDS011;11397;48.410;11.468;2022-10-04T12:06:57;6.70;;;6.50;;
22460;SDS011;11397;48.410;11.468;2022-10-04T12:12:10;6.95;;;6.75;;
22460;SDS011;11397;48.410;11.468;2022-10-04T12:23:04;7.57;;;7.28;;
22460;SDS011;11397;48.410;11.468;2022-10-04T12:28:12;6.75;;;6.55;;
22460;SDS011;11397;48.410;11.468;2022-10-04T12:33:17;7.20;;;7.00;;
22460;SDS011;11397;48.410;11.468;2022-10-04T12:38:33;7.07;;;6.88;;
22460;SDS011;11397;48.410;11.468;2022-10-04T12:43:39;7.03;;;6.82;;
22460;SDS011;11397;48.410;11.468;2022-10-04T12:48:46;7.25;;;7.03;;
22460;SDS011;11397;48.410;11.468;2022-10-04T12:53:55;7.18;;;6.97;;
22460;SDS011;11397;48.410;11.468;2022-10-04T12:59:04;6.57;;;6.38;;
22460;SDS011;11397;48.410;11.468;2022-10-04T13:04:09;6.03;;;5.82;;
22460;SDS011;11397;48.410;11.468;2022-10-04T13:09:17;7.63;;;7.32;;
22460;SDS011;11397;48.410;11.468;2022-10-04T13:19:51;6.85;;;6.65;;
22460;SDS011;11397;48.410;11.468;2022-10-04T13:25:00;7.90;;;7.60;;
22460;SDS011;11397;48.410;11.468;2022-10-04T13:30:14;7.18;;;6.97;;
22460;SDS011;11397;48.410;11.468;2022-10-04T13:35:17;7.35;;;7.07;;
22460;SDS011;11397;48.410;11.468;2022-10-04T13:40:24;6.90;;;6.70;;
22460;SDS011;11397;48.410;11.468;2022-10-04T13:45:33;6.93;;;6.72;;
22460;SDS011;11397;48.410;11.468;2022-10-04T13:50:40;6.90;;;6.70;;
22460;SDS011;11397;48.410;11.468;2022-10-04T13:55:46;7.50;;;7.20;;
22460;SDS011;11397;48.410;11.468;2022-10-04T14:06:39;6.78;;;6.57;;
22460;SDS011;11397;48.410;11.468;2022-10-04T14:17:26;6.47;;;6.28;;
22460;SDS011;11397;48.410;11.468;2022-10-04T14:22:44;7.07;;;6.88;;
22460;SDS011;11397;48.410;11.468;2022-10-04T14:33:22;6.45;;;6.25;;
22460;SDS011;11397;48.410;11.468;2022-10-04T14:38:45;6.20;;;6.00;;
22460;SDS011;11397;48.410;11.468;2022-10-04T14:44:01;6.07;;;5.88;;
22460;SDS011;11397;48.410;11.468;2022-10-04T14:49:08;6.47;;;6.28;;
22460;SDS011;11397;48.410;11.468;2022-10-04T14:54:14;6.88;;;6.68;;
22460;SDS011;11397;48.410;11.468;2022-10-04T14:59:22;6.15;;;5.95;;
22460;SDS011;11397;48.410;11.468;2022-10-04T15:04:29;6.75;;;6.55;;
22460;SDS011;11397;48.410;11.468;2022-10-04T15:09:49;6.03;;;5.82;;
22460;SDS011;11397;48.410;11.468;2022-10-04T15:15:03;6.53;;;6.32;;
22460;SDS011;11397;48.410;11.468;2022-10-04T15:20:20;6.97;;;6.78;;
22460;SDS011;11397;48.410;11.468;2022-10-04T15:25:37;6.80;;;6.60;;
22460;SDS011;11397;48.410;11.468;2022-10-04T15:30:46;6.35;;;6.15;;
22460;SDS011;11397;48.410;11.468;2022-10-04T15:35:57;6.05;;;5.85;;
22460;SDS011;11397;48.410;11.468;2022-10-04T15:41:00;7.10;;;6.90;;
22460;SDS011;11397;48.410;11.468;2022-10-04T15:51:39;7.05;;;6.85;;
22460;SDS011;11397;48.410;11.468;2022-10-04T15:56:47;7.03;;;6.82;;
22460;SDS011;11397;48.410;11.468;2022-10-04T16:01:55;6.95;;;6.75;;
22460;SDS011;11397;48.410;11.468;2022-10-04T16:07:07;7.38;;;7.13;;
22460;SDS011;11397;48.410;11.468;2022-10-04T16:12:16;7.32;;;7.05;;
22460;SDS011;11397;48.410;11.468;2022-10-04T16:28:03;7.95;;;7.65;;
22460;SDS011;11397;48.410;11.468;2022-10-04T16:33:11;8.02;;;7.72;;
22460;SDS011;11397;48.410;11.468;2022-10-04T16:38:18;6.63;;;6.43;;
22460;SDS011;11397;48.410;11.468;2022-10-04T16:43:24;7.15;;;6.95;;
22460;SDS011;11397;48.410;11.468;2022-10-04T16:48:29;7.55;;;7.25;;
22460;SDS011;11397;48.410;11.468;2022-10-04T16:53:37;7.75;;;7.45;;
22460;SDS011;11397;48.410;11.468;2022-10-04T16:58:53;8.93;;;8.63;;
22460;SDS011;11397;48.410;11.468;2022-10-04T17:03:58;8.23;;;7.93;;
22460;SDS011;11397;48.410;11.468;2022-10-04T17:09:05;7.75;;;7.45;;
22460;SDS011;11397;48.410;11.468;2022-10-04T17:14:30;8.15;;;7.85;;
22460;SDS011;11397;48.410;11.468;2022-10-04T17:19:34;8.05;;;7.75;;
22460;SDS011;11397;48.410;11.468;2022-10-04T17:24:49;7.30;;;7.05;;
22460;SDS011;11397;48.410;11.468;2022-10-04T17:29:57;7.07;;;6.88;;
22460;SDS011;11397;48.410;11.468;2022-10-04T17:35:05;8.02;;;7.72;;
22460;SDS011;11397;48.410;11.468;2022-10-04T17:40:19;8.18;;;7.88;;
22460;SDS011;11397;48.410;11.468;2022-10-04T17:45:40;6.97;;;6.78;;
22460;SDS011;11397;48.410;11.468;2022-10-04T17:50:46;6.63;;;6.43;;
22460;SDS011;11397;48.410;11.468;2022-10-04T17:56:08;8.10;;;7.80;;
22460;SDS011;11397;48.410;11.468;2022-10-04T18:01:14;8.27;;;7.97;;
22460;SDS011;11397;48.410;11.468;2022-10-04T18:06:18;8.05;;;7.75;;
22460;SDS011;11397;48.410;11.468;2022-10-04T18:11:27;8.20;;;7.90;;
22460;SDS011;11397;48.410;11.468;2022-10-04T18:16:40;7.80;;;7.50;;
22460;SDS011;11397;48.410;11.468;2022-10-04T18:21:50;8.52;;;8.23;;
22460;SDS011;11397;48.410;11.468;2022-10-04T18:26:56;8.05;;;7.75;;
22460;SDS011;11397;48.410;11.468;2022-10-04T18:32:00;7.82;;;7.53;;
22460;SDS011;11397;48.410;11.468;2022-10-04T18:37:17;9.00;;;8.70;;
22460;SDS011;11397;48.410;11.468;2022-10-04T18:42:21;8.02;;;7.72;;
22460;SDS011;11397;48.410;11.468;2022-10-04T18:47:31;8.30;;;8.00;;
22460;SDS011;11397;48.410;11.468;2022-10-04T18:52:35;8.20;;;7.90;;
22460;SDS011;11397;48.410;11.468;2022-10-04T18:57:41;9.23;;;8.90;;
22460;SDS011;11397;48.410;11.468;2022-10-04T19:03:04;7.93;;;7.63;;
22460;SDS011;11397;48.410;11.468;2022-10-04T19:08:10;8.63;;;8.32;;
22460;SDS011;11397;48.410;11.468;2022-10-04T19:13:23;7.53;;;7.22;;
22460;SDS011;11397;48.410;11.468;2022-10-04T19:18:35;8.18;;;7.88;;
22460;SDS011;11397;48.410;11.468;2022-10-04T19:23:41;8.80;;;8.50;;
22460;SDS011;11397;48.410;11.468;2022-10-04T19:28:45;8.45;;;8.15;;
22460;SDS011;11397;48.410;11.468;2022-10-04T19:33:51;8.85;;;8.55;;
22460;SDS011;11397;48.410;11.468;2022-10-04T19:38:56;8.05;;;7.75;;
22460;SDS011;11397;48.410;11.468;2022-10-04T19:44:02;8.13;;;7.82;;
22460;SDS011;11397;48.410;11.468;2022-10-04T19:49:10;8.48;;;8.18;;
22460;SDS011;11397;48.410;11.468;2022-10-04T19:54:14;8.80;;;8.50;;
22460;SDS011;11397;48.410;11.468;2022-10-04T19:59:19;8.40;;;8.10;;
22460;SDS011;11397;48.410;11.468;2022-10-04T20:04:26;7.60;;;7.30;;
22460;SDS011;11397;48.410;11.468;2022-10-04T20:09:50;8.40;;;8.10;;
22460;SDS011;11397;48.410;11.468;2022-10-04T20:15:13;8.35;;;8.05;;
22460;SDS011;11397;48.410;11.468;2022-10-04T20:21:01;7.97;;;7.68;;
22460;SDS011;11397;48.410;11.468;2022-10-04T20:30:59;8.82;;;8.52;;
22460;SDS011;11397;48.410;11.468;2022-10-04T20:36:02;7.90;;;7.60;;
22460;SDS011;11397;48.410;11.468;2022-10-04T20:41:05;7.13;;;6.90;;
22460;SDS011;11397;48.410;11.468;2022-10-04T20:46:27;8.18;;;7.88;;
22460;SDS011;11397;48.410;11.468;2022-10-04T20:51:33;8.75;;;8.45;;
22460;SDS011;11397;48.410;11.468;2022-10-04T20:56:34;7.30;;;7.05;;
22460;SDS011;11397;48.410;11.468;2022-10-04T21:01:36;8.38;;;8.07;;
22460;SDS011;11397;48.410;11.468;2022-10-04T21:06:51;8.82;;;8.52;;
22460;SDS011;11397;48.410;11.468;2022-10-04T21:11:53;7.68;;;7.38;;
22460;SDS011;11397;48.410;11.468;2022-10-04T21:16:55;9.13;;;8.82;;
22460;SDS011;11397;48.410;11.468;2022-10-04T21:21:58;8.35;;;8.05;;
22460;SDS011;11397;48.410;11.468;2022-10-04T21:27:23;8.07;;;7.78;;
22460;SDS011;11397;48.410;11.468;2022-10-04T21:32:26;8.57;;;8.27;;
22460;SDS011;11397;48.410;11.468;2022-10-04T21:37:29;8.35;;;8.05;;
22460;SDS011;11397;48.410;11.468;2022-10-04T21:42:31;8.70;;;8.40;;
22460;SDS011;11397;48.410;11.468;2022-10-04T21:47:32;8.32;;;8.02;;
22460;SDS011;11397;48.410;11.468;2022-10-04T21:52:35;9.10;;;8.80;;
22460;SDS011;11397;48.410;11.468;2022-10-04T21:57:37;9.13;;;8.82;;
22460;SDS011;11397;48.410;11.468;2022-10-04T22:02:38;8.65;;;8.35;;
22460;SDS011;11397;48.410;11.468;2022-10-04T22:07:41;8.00;;;7.70;;
22460;SDS011;11397;48.410;11.468;2022-10-04T22:12:43;9.15;;;8.85;;
22460;SDS011;11397;48.410;11.468;2022-10-04T22:17:44;8.80;;;8.50;;
22460;SDS011;11397;48.410;11.468;2022-10-04T22:22:47;8.35;;;8.05;;
22460;SDS011;11397;48.410;11.468;2022-10-04T22:27:49;9.13;;;8.82;;
22460;SDS011;11397;48.410;11.468;2022-10-04T22:32:52;8.55;;;8.25;;
22460;SDS011;11397;48.410;11.468;2022-10-04T22:37:56;9.05;;;8.75;;
22460;SDS011;11397;48.410;11.468;2022-10-04T22:42:58;8.55;;;8.25;;
22460;SDS011;11397;48.410;11.468;2022-10-04T22:48:00;9.13;;;8.82;;
22460;SDS011;11397;48.410;11.468;2022-10-04T22:53:05;8.85;;;8.55;;
22460;SDS011;11397;48.410;11.468;2022-10-04T22:58:09;8.50;;;8.20;;
22460;SDS011;11397;48.410;11.468;2022-10-04T23:03:20;9.18;;;8.88;;
22460;SDS011;11397;48.410;11.468;2022-10-04T23:08:25;8.50;;;8.20;;
22460;SDS011;11397;48.410;11.468;2022-10-04T23:13:26;8.15;;;7.85;;
22460;SDS011;11397;48.410;11.468;2022-10-04T23:18:28;9.50;;;9.20;;
22460;SDS011;11397;48.410;11.468;2022-10-04T23:23:31;8.55;;;8.25;;
22460;SDS011;11397;48.410;11.468;2022-10-04T23:28:32;8.35;;;8.05;;
22460;SDS011;11397;48.410;11.468;2022-10-04T23:33:36;9.23;;;8.93;;
22460;SDS011;11397;48.410;11.468;2022-10-04T23:38:45;8.60;;;8.30;;
22460;SDS011;11397;48.410;11.468;2022-10-04T23:43:47;8.68;;;8.38;;
22460;SDS011;11397;48.410;11.468;2022-10-04T23:48:49;7.75;;;7.45;;
22460;SDS011;11397;48.410;11.468;2022-10-04T23:53:52;8.75;;;8.45;;
22460;SDS011;11397;48.410;11.468;2022-10-04T23:58:54;9.23;;;8.93;;
